Duke Field,(Eglin Af Aux Nr 3) Airport
KEGI : now visible

Airfield :











YOU CAN JOIN US ON...

 
LOGIN :

Register | Disclaimer

   EN    FR    IT 

 









Legend :    VFR   Marginal VFR   IFR   Intensive IFR   Very Intensive IFR
Visi :
Ceiling :
>= 8 km
>= 3000ft
5 to 8 km
1000 to 3000 ft
1500m to 5 km
500 to 1000 ft
800 to 1500m
200 to 500 ft
< 800m
< 200 ft
Symbols :   Thunderstorms  Fog  Heavy snow  Heavy precipitations  Wind > 20 kt






- Airport Elevation : 191 ft


KEGI - Duke Field,(Eglin Af Aux Nr 3)

CURRENT METAR :
  • 240756Z AUTO 00000KT 10SM CLR 20/19 A2995 RMK AO2 SLP141 T02000190 $

EXPIRED METARs :
  • 240656Z AUTO 08003KT 10SM CLR 20/19 A2997 RMK AO2 SLP148 T01990189 $
  • 240626Z AUTO 00000KT 5SM BR CLR 20/19 A2997 RMK AO2 SLP148 $
  • 240556Z AUTO 04003KT 10SM CLR 19/18 A2999 RMK AO2 SLP155 T01910183 10225 20191 403030190 58007 $
  • 240546Z AUTO 00000KT 3SM BR CLR 19/19 A2998 RMK AO2 SLP151 $

TAF AMD TAF KEGI
Valid from the 24 at 06:00 until the 25 at 07:00 UTC


240600Z 2406/2507 07009KT 8000 BR FEW070 QNH2997INS
BECMG 2406/2407 12006KT 4800 BR FEW010 BKN018 QNH2998INS
BECMG 2413/2414 14009KT 9999 NSW SCT010 BKN020 QNH2999INS
BECMG 2414/2415 14009KT 9999 VCTS SCT010CB BKN020 QNH2998INS
TEMPO 2415/2421 13015G25KT 8000 -TSRA OVC020CB
BECMG 2501/2502 18009KT 9999 VCSH BKN020 QNH2990INS TX28/2420Z TN19/2413Z LAST NO AMDS AFT 2406 NEXT 2609
KZJX FIR / North America



MET'MAP, your aeronautical weather chart ! - Copyright ORBIFLY December 2007 - Disclaimer

ORBIFLY MET'MAP TEAM :

Programming & Development : Alexandra Zaïnal
Concept & original design : Baudouin d'Aumeries
Assistance for programming : Marc-Olivier Méhu
Technical & hardware support : Manuel Goepfert

Contact : metmap@orbifly.com




SOURCES & CREDITS :

   NOAA       Earth
Advisory